Skip Navigation Links
NOAA logo - Click to go to the NOAA homepage
NOAA's National Weather Service
Alaska Aviation Weather Unit
  NWS logo - Click to go to the NWS homepage
Left Navbar Graphic     22 AKDT = 06 GMT

   
NOAA is celebrating 200 years of science, service, and stewardship. Visit the NOAA 200th celebration Web site to learn more.
USA.gov is the U.S. Government's official Web portal to all Federal, state and local government Web resources and services.
Facebook
NWS on Facebook

Important Change Regarding the AAWU Web Presence

 

Over the last several months, the AAWU has been working to navigate its webpages to a nationally supported server. Security, as well as other needs, have necessitated the change.  We have been given an extension for the site changeover while we diligently work at addressing feedback received. As of July 14, 2017, aawu.arh.noaa.gov will be discontinued. The new AAWU web address is weather.gov/aawu. It is now live and will run in-parallel with the old site until it is discontinued on July 14, 2017. Please continue to send any feedback or questions regarding the new webpages to nws.ar.aawu.webauthors@noaa.gov.  Thank you for your patience during this time of transition.
AAWU Home :: Display TAF Add Bookmark
TAF PAGY 260545Z 2606/2706 21007KT P6SM OVC050
     FM261900 22012G20KT P6SM OVC035 PROB30 2620/2702 -RA OVC030
     FM270200 21010G18KT P6SM -RA OVC030
      AMD LTD TO CLD VIS AND WIND=

METAR PAGY 260053Z AUTO 20015KT 10SM OVC060 17/09 A2997 RMK AO2 SLP149 T01720094 TSNO= METAR PAGY 260153Z AUTO 20014KT 10SM OVC065 18/09 A2996 RMK AO2 SLP145 T01780094 TSNO= METAR PAGY 260253Z AUTO 20016KT 10SM OVC060 17/09 A2995 RMK AO2 SLP141 T01720094 57012 TSNO= METAR PAGY 260453Z AUTO 25007KT 10SM FEW049 OVC065 16/10 A2995 RMK AO2 SLP141 T01560100 TSNO= METAR PAGY 260553Z AUTO 00000KT 10SM OVC065 16/10 A2994 RMK AO2 SLP140 T01560100 10178 20150 58002 TSNO=
 Alaska TAF Map

NOAA's National Weather Service
Alaska Aviation Weather Unit
6930 Sand Lake Road
Anchorage, AK 99502-1845
Disclaimer
Credits
Glossary
Privacy Policy
About Us
Career Opportunities
Contact AAWU Internet Services Site last modified: April, 17th 2012